createdAt,value
2022-11-27T00:01:01.694Z,63.80
2022-11-27T00:03:29.218Z,63.89
2022-11-27T00:05:57.535Z,64.09
2022-11-27T00:08:25.199Z,64.03
2022-11-27T00:10:52.880Z,64.12
2022-11-27T00:13:21.620Z,64.08
2022-11-27T00:15:49.100Z,63.58
2022-11-27T00:18:16.840Z,63.75
2022-11-27T00:20:44.271Z,63.29
2022-11-27T00:23:11.741Z,64.03
2022-11-27T00:25:39.221Z,63.84
2022-11-27T00:28:06.689Z,63.66
2022-11-27T00:30:35.469Z,64.02
2022-11-27T00:33:03.137Z,63.59
2022-11-27T00:35:30.609Z,63.53
2022-11-27T00:37:58.095Z,63.67
2022-11-27T00:40:25.610Z,63.94
2022-11-27T00:42:53.028Z,64.04
2022-11-27T00:47:42.469Z,63.73
2022-11-27T00:50:10.402Z,63.78
2022-11-27T00:52:37.879Z,63.94
2022-11-27T00:55:06.009Z,63.92
2022-11-27T00:57:33.456Z,63.80
2022-11-27T01:00:00.876Z,64.00
2022-11-27T01:02:28.382Z,63.92
2022-11-27T01:04:57.416Z,63.83
2022-11-27T01:07:25.033Z,63.67
2022-11-27T01:09:52.484Z,63.31
2022-11-27T01:12:20.014Z,63.50
2022-11-27T01:14:47.443Z,63.66
2022-11-27T01:17:14.900Z,63.73
2022-11-27T01:19:42.392Z,63.50
2022-11-27T01:22:11.175Z,63.74
2022-11-27T01:24:38.894Z,63.33
2022-11-27T01:27:06.567Z,63.50
2022-11-27T01:29:34.029Z,63.69
2022-11-27T01:32:01.491Z,63.70
2022-11-27T01:34:28.948Z,63.95
2022-11-27T01:36:56.408Z,63.67
2022-11-27T01:39:25.216Z,63.53
2022-11-27T01:41:52.660Z,63.43
2022-11-27T01:44:49.124Z,63.48
2022-11-27T01:47:18.787Z,63.34
2022-11-27T01:49:48.492Z,63.51
2022-11-27T01:52:18.068Z,63.51
2022-11-27T01:54:48.785Z,63.57
2022-11-27T01:57:19.231Z,63.43
2022-11-27T01:59:46.771Z,63.23
2022-11-27T02:02:14.287Z,63.51
2022-11-27T02:04:42.115Z,63.41
2022-11-27T02:07:09.836Z,63.33
2022-11-27T02:09:37.339Z,63.45
2022-11-27T02:12:10.985Z,63.42
2022-11-27T02:14:40.731Z,62.94
2022-11-27T02:17:10.402Z,62.92
2022-11-27T02:19:47.290Z,62.50
2022-11-27T02:22:18.970Z,62.87
2022-11-27T02:24:50.106Z,63.08
2022-11-27T02:27:34.456Z,63.15
2022-11-27T02:30:03.304Z,63.26
2022-11-27T02:32:33.201Z,63.39
2022-11-27T02:35:02.573Z,63.32
2022-11-27T02:37:33.265Z,63.54
2022-11-27T02:40:03.407Z,62.91
2022-11-27T02:42:31.523Z,62.99
2022-11-27T02:45:01.007Z,62.82
2022-11-27T02:47:29.868Z,63.06
2022-11-27T02:49:57.772Z,63.23
2022-11-27T02:52:26.396Z,62.82
2022-11-27T02:54:55.837Z,63.09
2022-11-27T02:57:23.672Z,63.07
2022-11-27T02:59:51.121Z,62.83
2022-11-27T03:02:23.503Z,62.92
2022-11-27T03:04:53.488Z,63.05
2022-11-27T03:07:27.673Z,62.62
2022-11-27T03:09:55.288Z,63.15
2022-11-27T03:12:22.755Z,62.87
2022-11-27T03:14:50.230Z,63.08
2022-11-27T03:17:23.548Z,63.41
2022-11-27T03:19:53.500Z,63.38
2022-11-27T03:22:20.965Z,63.35
2022-11-27T03:24:49.757Z,63.41
2022-11-27T03:27:19.214Z,63.38
2022-11-27T03:29:48.366Z,63.43
2022-11-27T03:32:15.851Z,63.42
2022-11-27T03:34:43.550Z,63.17
2022-11-27T03:37:12.450Z,63.50
2022-11-27T03:39:39.897Z,63.57
2022-11-27T03:42:12.624Z,63.38
2022-11-27T03:44:42.898Z,63.38
2022-11-27T03:47:13.353Z,63.64
2022-11-27T03:49:46.782Z,63.55
2022-11-27T03:52:18.361Z,63.57
2022-11-27T03:54:53.488Z,63.54
2022-11-27T03:57:22.864Z,63.41
2022-11-27T03:59:50.816Z,63.50
2022-11-27T04:02:28.948Z,63.71
2022-11-27T04:04:56.388Z,63.54
2022-11-27T04:07:25.246Z,63.80
2022-11-27T04:09:52.700Z,63.56
2022-11-27T04:12:20.156Z,63.70
2022-11-27T04:14:47.601Z,63.72
2022-11-27T04:17:15.048Z,63.49
2022-11-27T04:19:42.497Z,63.67
2022-11-27T04:22:09.941Z,63.54
2022-11-27T04:24:38.866Z,63.73
2022-11-27T04:27:06.584Z,63.71
2022-11-27T04:29:34.135Z,63.68
2022-11-27T04:32:01.588Z,63.80
2022-11-27T04:34:29.031Z,63.54
2022-11-27T04:36:56.479Z,63.67
2022-11-27T04:39:23.961Z,63.60
2022-11-27T04:41:52.729Z,63.47
2022-11-27T04:44:22.556Z,63.55
2022-11-27T04:47:49.033Z,63.55
2022-11-27T04:50:16.741Z,63.56
2022-11-27T04:52:44.172Z,63.46
2022-11-27T04:55:11.596Z,63.34
2022-11-27T04:57:40.394Z,63.41
2022-11-27T05:00:09.062Z,63.14
2022-11-27T05:02:36.584Z,63.33
2022-11-27T05:05:04.387Z,63.31
2022-11-27T05:07:31.888Z,63.48
2022-11-27T05:09:59.431Z,63.34
2022-11-27T05:12:26.870Z,63.47
2022-11-27T05:14:55.647Z,63.43
2022-11-27T05:17:23.102Z,63.44
2022-11-27T05:19:50.536Z,63.35
2022-11-27T05:22:17.991Z,63.33
2022-11-27T05:24:45.585Z,63.25
2022-11-27T05:27:13.011Z,63.20
2022-11-27T05:29:40.485Z,63.42
2022-11-27T05:32:09.259Z,63.26
2022-11-27T05:34:36.718Z,63.17
2022-11-27T05:37:04.152Z,63.34
2022-11-27T05:39:31.605Z,63.37
2022-11-27T05:41:59.077Z,63.15
2022-11-27T05:44:27.449Z,63.23
2022-11-27T05:46:54.965Z,63.18
2022-11-27T05:49:23.781Z,63.25
2022-11-27T05:51:51.884Z,63.24
2022-11-27T05:54:19.660Z,63.43
2022-11-27T05:56:47.147Z,63.41
2022-11-27T05:59:15.048Z,63.26
2022-11-27T06:01:42.521Z,63.28
2022-11-27T06:04:10.026Z,63.38
2022-11-27T06:06:38.835Z,63.48
2022-11-27T06:09:12.187Z,63.37
2022-11-27T06:11:40.464Z,63.36
2022-11-27T06:14:08.412Z,63.47
2022-11-27T06:16:35.947Z,63.03
2022-11-27T06:19:03.448Z,63.25
2022-11-27T06:21:30.901Z,63.30
2022-11-27T06:23:59.701Z,62.89
2022-11-27T06:26:28.245Z,62.83
2022-11-27T06:28:56.062Z,63.13
2022-11-27T06:31:24.320Z,62.94
2022-11-27T06:33:52.606Z,62.81
2022-11-27T06:36:20.237Z,62.99
2022-11-27T06:38:47.770Z,62.99
2022-11-27T06:41:17.968Z,63.18
2022-11-27T06:43:45.296Z,62.92
2022-11-27T06:46:15.212Z,62.99
2022-11-27T06:48:42.919Z,63.13
2022-11-27T06:51:12.521Z,63.15
2022-11-27T06:53:39.984Z,63.18
2022-11-27T06:56:08.751Z,63.07
2022-11-27T06:58:37.565Z,62.95
2022-11-27T07:01:07.811Z,63.10
2022-11-27T07:03:35.355Z,63.08
2022-11-27T07:06:03.131Z,63.20
2022-11-27T07:08:30.787Z,63.09
2022-11-27T07:11:02.497Z,62.80
2022-11-27T07:13:30.074Z,62.85
2022-11-27T07:16:02.330Z,62.83
2022-11-27T07:18:29.890Z,62.63
2022-11-27T07:20:57.347Z,62.62
2022-11-27T07:23:24.801Z,62.82
2022-11-27T07:25:52.260Z,62.94
2022-11-27T07:28:19.726Z,63.04
2022-11-27T07:30:47.206Z,62.90
2022-11-27T07:33:15.993Z,62.88
2022-11-27T07:35:43.430Z,63.18
2022-11-27T07:38:10.882Z,62.46
2022-11-27T07:40:38.934Z,62.43
2022-11-27T07:43:06.428Z,62.60
2022-11-27T07:45:33.913Z,62.38
2022-11-27T07:48:01.420Z,62.50
2022-11-27T07:50:30.217Z,62.80
2022-11-27T07:52:57.688Z,62.60
2022-11-27T07:55:25.152Z,61.96
2022-11-27T07:57:52.592Z,62.12
2022-11-27T08:00:21.070Z,61.79
2022-11-27T08:02:48.524Z,62.10
2022-11-27T08:05:16.065Z,62.24
2022-11-27T08:07:44.902Z,62.40
2022-11-27T08:10:12.431Z,62.44
2022-11-27T08:12:39.849Z,62.01
2022-11-27T08:15:08.531Z,62.14
2022-11-27T08:17:35.990Z,62.31
2022-11-27T08:20:03.609Z,61.77
2022-11-27T08:22:31.064Z,62.41
2022-11-27T08:24:59.845Z,62.29
2022-11-27T08:27:27.339Z,62.33
2022-11-27T08:29:54.794Z,62.04
2022-11-27T08:32:22.266Z,61.83
2022-11-27T08:34:49.714Z,62.20
2022-11-27T08:37:17.162Z,62.52
2022-11-27T08:39:44.618Z,62.49
2022-11-27T08:42:13.429Z,62.55
2022-11-27T08:44:41.074Z,62.64
2022-11-27T08:47:08.743Z,62.30
2022-11-27T08:49:39.163Z,62.46
2022-11-27T08:52:08.974Z,61.97
2022-11-27T08:54:36.489Z,62.22
2022-11-27T08:57:04.067Z,62.24
2022-11-27T08:59:32.844Z,62.05
2022-11-27T09:02:00.288Z,61.78
2022-11-27T09:04:27.863Z,62.01
2022-11-27T09:06:58.359Z,62.34
2022-11-27T09:09:26.357Z,62.42
2022-11-27T09:11:54.978Z,62.54
2022-11-27T09:14:22.423Z,62.29
2022-11-27T09:16:51.271Z,62.48
2022-11-27T09:19:19.400Z,62.16
2022-11-27T09:21:46.871Z,62.04
2022-11-27T09:24:14.320Z,62.04
2022-11-27T09:26:41.809Z,62.04
2022-11-27T09:29:09.371Z,62.16
2022-11-27T09:31:36.836Z,62.41
2022-11-27T09:34:06.151Z,62.57
2022-11-27T09:36:33.636Z,62.32
2022-11-27T09:39:02.563Z,61.97
2022-11-27T09:41:40.191Z,62.11
2022-11-27T09:44:15.855Z,62.11
2022-11-27T09:46:43.444Z,62.34
2022-11-27T09:49:15.109Z,62.52
2022-11-27T09:51:44.179Z,62.62
2022-11-27T09:54:15.732Z,62.04
2022-11-27T09:56:43.645Z,61.77
2022-11-27T09:59:15.476Z,61.96
2022-11-27T10:01:47.624Z,62.30
2022-11-27T10:04:20.867Z,62.06
2022-11-27T10:07:00.103Z,62.11
2022-11-27T10:09:30.308Z,62.25
2022-11-27T10:11:59.506Z,62.06
2022-11-27T10:14:34.015Z,62.11
2022-11-27T10:17:04.377Z,62.21
2022-11-27T10:19:36.827Z,61.68
2022-11-27T10:22:06.075Z,62.12
2022-11-27T10:24:36.746Z,62.16
2022-11-27T10:27:04.775Z,62.20
2022-11-27T10:29:36.726Z,62.02
2022-11-27T10:32:06.146Z,62.01
2022-11-27T10:34:39.491Z,62.34
2022-11-27T10:37:09.158Z,62.18
2022-11-27T10:39:41.026Z,61.96
2022-11-27T10:42:10.365Z,62.38
2022-11-27T10:44:40.774Z,61.96
2022-11-27T10:47:09.125Z,62.13
2022-11-27T10:49:40.315Z,62.17
2022-11-27T10:52:12.192Z,62.37
2022-11-27T10:54:39.972Z,62.87
2022-11-27T10:57:32.853Z,62.46
2022-11-27T11:00:04.928Z,62.43
2022-11-27T11:02:33.364Z,62.52
2022-11-27T11:05:34.612Z,62.36
2022-11-27T11:08:02.199Z,62.66
2022-11-27T11:10:32.160Z,62.23
2022-11-27T11:13:16.860Z,62.45
2022-11-27T11:15:58.855Z,62.45
2022-11-27T11:18:27.534Z,62.36
2022-11-27T11:20:57.983Z,62.62
2022-11-27T11:23:30.732Z,62.76
2022-11-27T11:26:00.681Z,62.64
2022-11-27T11:28:28.122Z,62.53
2022-11-27T11:31:01.049Z,62.74
2022-11-27T11:33:28.526Z,62.81
2022-11-27T11:36:09.412Z,62.53
2022-11-27T11:38:38.019Z,62.66
2022-11-27T11:41:06.488Z,62.89
2022-11-27T11:43:35.529Z,62.81
2022-11-27T11:46:08.619Z,62.76
2022-11-27T11:48:36.675Z,62.67
2022-11-27T11:51:08.705Z,62.72
2022-11-27T11:53:36.982Z,62.82
2022-11-27T11:56:07.654Z,62.63
2022-11-27T11:58:41.405Z,62.61
2022-11-27T12:01:26.744Z,62.52
2022-11-27T12:04:03.120Z,62.58
2022-11-27T12:06:41.388Z,62.68
2022-11-27T12:09:15.681Z,62.55
2022-11-27T12:11:45.573Z,62.46
2022-11-27T12:14:19.225Z,62.50
2022-11-27T12:16:55.974Z,62.18
2022-11-27T12:19:48.820Z,62.30
2022-11-27T12:22:23.461Z,62.57
2022-11-27T12:24:55.902Z,62.58
2022-11-27T12:27:28.083Z,62.27
2022-11-27T12:30:08.065Z,62.57
2022-11-27T12:32:45.081Z,62.55
2022-11-27T12:35:22.471Z,62.28
2022-11-27T12:37:54.328Z,62.56
2022-11-27T12:40:31.042Z,62.35
2022-11-27T12:43:02.435Z,62.56
2022-11-27T12:45:30.582Z,62.46
2022-11-27T12:48:00.008Z,62.67
2022-11-27T12:50:35.892Z,62.59
2022-11-27T12:53:11.442Z,62.70
2022-11-27T12:55:39.664Z,62.75
2022-11-27T12:58:07.983Z,62.64
2022-11-27T13:00:37.786Z,62.53
2022-11-27T13:03:07.271Z,62.66
2022-11-27T13:05:36.360Z,62.85
2022-11-27T13:08:06.851Z,62.71
2022-11-27T13:10:36.607Z,62.58
2022-11-27T13:13:06.584Z,62.38
2022-11-27T13:15:36.827Z,62.52
2022-11-27T13:18:07.213Z,62.71
2022-11-27T13:20:36.121Z,62.54
2022-11-27T13:23:04.878Z,62.65
2022-11-27T13:25:32.422Z,62.67
2022-11-27T13:27:59.885Z,62.22
2022-11-27T13:30:28.705Z,62.28
2022-11-27T13:32:57.069Z,62.58
2022-11-27T13:35:27.641Z,62.78
2022-11-27T13:37:58.233Z,62.77
2022-11-27T13:40:29.166Z,62.68
2022-11-27T13:42:56.965Z,62.57
2022-11-27T13:45:26.128Z,62.40
2022-11-27T13:47:53.591Z,62.42
2022-11-27T13:50:24.701Z,62.83
2022-11-27T13:52:57.138Z,62.46
2022-11-27T13:55:25.370Z,62.65
2022-11-27T13:57:54.326Z,62.94
2022-11-27T14:00:32.911Z,62.93
2022-11-27T14:03:00.426Z,62.88
2022-11-27T14:05:38.696Z,62.78
2022-11-27T14:08:18.383Z,62.81
2022-11-27T14:10:54.261Z,62.67
2022-11-27T14:13:27.380Z,62.80
2022-11-27T14:16:01.582Z,63.11
2022-11-27T14:18:29.861Z,62.67
2022-11-27T14:20:58.512Z,62.92
2022-11-27T14:23:30.515Z,62.83
2022-11-27T14:26:09.526Z,62.87
2022-11-27T14:28:41.712Z,63.04
2022-11-27T14:31:22.897Z,62.94
2022-11-27T14:34:14.442Z,63.08
2022-11-27T14:36:37.884Z,62.77
2022-11-27T14:39:05.744Z,62.93
2022-11-27T14:41:33.351Z,62.77
2022-11-27T14:44:02.411Z,62.91
2022-11-27T14:46:29.948Z,62.85
2022-11-27T14:48:57.484Z,62.82
2022-11-27T14:51:25.718Z,62.71
2022-11-27T14:53:55.130Z,62.91
2022-11-27T14:56:22.606Z,63.05
2022-11-27T14:58:51.480Z,62.95
2022-11-27T15:01:25.392Z,62.90
2022-11-27T15:03:56.856Z,62.87
2022-11-27T15:06:24.622Z,63.11
2022-11-27T15:09:15.863Z,62.95
2022-11-27T15:11:55.223Z,63.14
2022-11-27T15:14:23.831Z,62.96
2022-11-27T15:16:52.743Z,63.10
2022-11-27T15:19:23.663Z,63.05
2022-11-27T15:21:51.114Z,63.09
2022-11-27T15:24:30.692Z,62.92
2022-11-27T15:27:08.603Z,63.12
2022-11-27T15:29:37.626Z,63.09
2022-11-27T15:32:21.860Z,63.08
2022-11-27T15:34:50.979Z,63.10
2022-11-27T15:37:22.165Z,63.28
2022-11-27T15:39:51.575Z,63.06
2022-11-27T15:42:19.654Z,63.00
2022-11-27T15:44:47.316Z,63.19
2022-11-27T15:47:23.345Z,63.15
2022-11-27T15:49:50.888Z,63.05
2022-11-27T15:52:18.348Z,63.09
2022-11-27T15:54:45.828Z,63.36
2022-11-27T15:57:13.390Z,63.25
2022-11-27T15:59:40.859Z,63.18
2022-11-27T16:02:10.186Z,63.14
2022-11-27T16:04:42.538Z,63.15
2022-11-27T16:07:10.150Z,63.15
2022-11-27T16:09:39.514Z,63.15
2022-11-27T16:12:07.272Z,63.08
2022-11-27T16:14:34.790Z,62.80
2022-11-27T16:17:02.270Z,63.25
2022-11-27T16:19:29.962Z,63.19
2022-11-27T16:21:58.784Z,63.20
2022-11-27T16:24:26.220Z,63.35
2022-11-27T16:26:53.718Z,63.16
2022-11-27T16:29:21.167Z,62.67
2022-11-27T16:31:48.809Z,63.02
2022-11-27T16:34:16.629Z,62.82
2022-11-27T16:36:44.216Z,62.63
2022-11-27T16:39:13.031Z,62.83
2022-11-27T16:41:40.570Z,62.98
2022-11-27T16:44:10.657Z,63.08
2022-11-27T16:46:38.823Z,62.93
2022-11-27T16:49:06.968Z,63.22
2022-11-27T16:51:35.010Z,63.10
2022-11-27T16:54:04.358Z,62.79
2022-11-27T16:56:33.974Z,62.77
2022-11-27T16:59:03.307Z,62.32
2022-11-27T17:01:31.996Z,62.46
2022-11-27T17:03:59.765Z,62.54
2022-11-27T17:06:27.804Z,62.61
2022-11-27T17:08:55.477Z,62.62
2022-11-27T17:11:24.735Z,62.51
2022-11-27T17:13:54.604Z,62.75
2022-11-27T17:16:22.185Z,62.92
2022-11-27T17:18:49.648Z,62.36
2022-11-27T17:21:18.356Z,62.51
2022-11-27T17:23:46.743Z,62.51
2022-11-27T17:26:15.279Z,62.57
2022-11-27T17:28:42.732Z,62.52
2022-11-27T17:31:11.980Z,62.23
2022-11-27T17:33:39.455Z,62.39
2022-11-27T17:36:07.279Z,62.14
2022-11-27T17:38:34.707Z,62.53
2022-11-27T17:41:02.155Z,62.40
2022-11-27T17:43:30.356Z,62.40
2022-11-27T17:45:57.880Z,61.81
2022-11-27T17:48:26.878Z,62.18
2022-11-27T17:50:54.447Z,62.44
2022-11-27T17:53:21.889Z,62.56
2022-11-27T17:55:49.344Z,62.47
2022-11-27T17:58:16.818Z,62.59
2022-11-27T18:00:44.877Z,62.56
2022-11-27T18:03:12.384Z,62.34
2022-11-27T18:05:41.198Z,61.95
2022-11-27T18:08:08.664Z,62.30
2022-11-27T18:10:36.131Z,62.39
2022-11-27T18:13:03.605Z,61.92
2022-11-27T18:15:31.099Z,62.24
2022-11-27T18:17:59.063Z,62.44
2022-11-27T18:20:26.547Z,62.59
2022-11-27T18:22:55.355Z,62.24
2022-11-27T18:25:22.866Z,62.35
2022-11-27T18:27:50.337Z,62.85
2022-11-27T18:30:18.131Z,62.48
2022-11-27T18:32:45.628Z,62.46
2022-11-27T18:35:13.167Z,62.61
2022-11-27T18:37:40.613Z,62.60
2022-11-27T18:40:10.744Z,62.57
2022-11-27T18:42:38.048Z,62.08
2022-11-27T18:45:06.514Z,62.20
2022-11-27T18:47:37.382Z,62.31
2022-11-27T18:50:05.805Z,62.51
2022-11-27T18:52:33.267Z,62.12
2022-11-27T18:55:01.484Z,62.28
2022-11-27T18:57:30.277Z,62.42
2022-11-27T18:59:57.764Z,62.39
2022-11-27T19:02:25.339Z,62.10
2022-11-27T19:04:53.053Z,61.86
2022-11-27T19:07:20.629Z,62.22
2022-11-27T19:09:48.124Z,62.38
2022-11-27T19:12:15.661Z,62.41
2022-11-27T19:14:44.722Z,62.62
2022-11-27T19:17:12.331Z,62.31
2022-11-27T19:19:55.517Z,62.33
2022-11-27T19:22:23.047Z,62.54
2022-11-27T19:24:50.496Z,62.06
2022-11-27T19:27:18.044Z,62.35
2022-11-27T19:29:46.843Z,62.41
2022-11-27T19:32:14.383Z,62.68
2022-11-27T19:34:42.044Z,62.26
2022-11-27T19:37:09.907Z,61.95
2022-11-27T19:39:37.396Z,61.61
2022-11-27T19:42:05.059Z,61.28
2022-11-27T19:44:32.573Z,61.90
2022-11-27T19:47:01.374Z,61.99
2022-11-27T19:49:28.863Z,62.26
2022-11-27T19:51:56.342Z,62.19
2022-11-27T19:54:23.831Z,61.91
2022-11-27T19:56:51.407Z,62.07
2022-11-27T19:59:22.880Z,62.01
2022-11-27T20:01:53.220Z,62.08
2022-11-27T20:04:22.051Z,62.21
2022-11-27T20:06:51.649Z,62.00
2022-11-27T20:09:19.196Z,61.90
2022-11-27T20:11:46.656Z,62.21
2022-11-27T20:14:14.136Z,62.16
2022-11-27T20:16:41.663Z,62.19
2022-11-27T20:19:09.460Z,62.31
2022-11-27T20:21:39.949Z,62.24
2022-11-27T20:24:07.541Z,62.25
2022-11-27T20:26:41.235Z,62.79
2022-11-27T20:29:10.199Z,62.29
2022-11-27T20:31:38.399Z,62.53
2022-11-27T20:34:06.204Z,62.34
2022-11-27T20:36:34.712Z,62.08
2022-11-27T20:39:03.634Z,61.89
2022-11-27T20:41:31.187Z,62.00
2022-11-27T20:43:59.862Z,62.11
2022-11-27T20:46:27.695Z,61.72
2022-11-27T20:48:55.489Z,61.81
2022-11-27T20:51:25.165Z,62.00
2022-11-27T20:53:52.658Z,61.81
2022-11-27T20:56:21.521Z,61.89
2022-11-27T20:58:49.027Z,61.74
2022-11-27T21:01:17.644Z,61.72
2022-11-27T21:03:45.406Z,61.73
2022-11-27T21:06:12.988Z,61.77
2022-11-27T21:08:40.505Z,61.48
2022-11-27T21:11:11.728Z,61.62
2022-11-27T21:13:40.606Z,61.42
2022-11-27T21:16:09.591Z,61.36
2022-11-27T21:18:37.105Z,61.29
2022-11-27T21:21:08.713Z,61.72
2022-11-27T21:23:37.413Z,61.89
2022-11-27T21:26:04.992Z,61.76
2022-11-27T21:28:32.593Z,61.88
2022-11-27T21:31:07.289Z,62.02
2022-11-27T21:33:34.778Z,62.30
2022-11-27T21:36:02.322Z,61.89
2022-11-27T21:38:29.841Z,62.08
2022-11-27T21:40:57.296Z,62.00
2022-11-27T21:43:24.820Z,62.04
2022-11-27T21:45:52.345Z,61.70
2022-11-27T21:48:21.398Z,61.81
2022-11-27T21:50:48.867Z,62.10
2022-11-27T21:53:16.349Z,61.61
2022-11-27T21:55:43.864Z,61.94
2022-11-27T21:58:11.479Z,62.16
2022-11-27T22:00:39.146Z,62.13
2022-11-27T22:03:06.609Z,62.01
2022-11-27T22:05:35.419Z,62.02
2022-11-27T22:08:02.946Z,62.03
2022-11-27T22:10:30.472Z,61.99
2022-11-27T22:12:57.937Z,61.90
2022-11-27T22:15:25.390Z,61.97
2022-11-27T22:17:52.925Z,62.04
2022-11-27T22:20:20.376Z,62.04
2022-11-27T22:22:49.143Z,62.17
2022-11-27T22:25:17.856Z,62.21
2022-11-27T22:27:45.297Z,62.14
2022-11-27T22:30:13.166Z,62.26
2022-11-27T22:32:40.653Z,62.09
2022-11-27T22:35:08.653Z,61.97
2022-11-27T22:37:36.095Z,62.02
2022-11-27T22:40:05.926Z,61.90
2022-11-27T22:42:33.424Z,61.92
2022-11-27T22:45:00.905Z,62.12
2022-11-27T22:47:28.377Z,62.19
2022-11-27T22:49:55.795Z,61.98
2022-11-27T22:52:23.247Z,62.10
2022-11-27T22:54:50.708Z,61.99
2022-11-27T22:57:19.673Z,62.22
2022-11-27T22:59:47.119Z,62.38
2022-11-27T23:02:14.657Z,61.67
2022-11-27T23:04:42.470Z,61.48
2022-11-27T23:07:10.725Z,61.78
2022-11-27T23:09:38.483Z,61.71
2022-11-27T23:12:06.479Z,61.96
2022-11-27T23:14:35.252Z,61.81
2022-11-27T23:17:02.797Z,61.48
2022-11-27T23:19:30.339Z,61.74
2022-11-27T23:21:57.818Z,61.61
2022-11-27T23:24:25.263Z,61.58
2022-11-27T23:26:52.733Z,61.45
2022-11-27T23:29:20.209Z,61.46
2022-11-27T23:31:49.014Z,61.20
2022-11-27T23:34:16.489Z,61.47
2022-11-27T23:36:43.919Z,61.20
2022-11-27T23:39:12.185Z,61.53
2022-11-27T23:41:39.692Z,61.82
2022-11-27T23:44:07.218Z,61.21
2022-11-27T23:46:34.659Z,60.45
2022-11-27T23:49:03.479Z,61.04
2022-11-27T23:51:31.724Z,61.32
2022-11-27T23:53:59.306Z,61.56
2022-11-27T23:56:27.833Z,61.61
2022-11-27T23:58:55.364Z,61.29
